Time;durP1;ratioP1;P1;durP2;ratioP2;P2;SDS_P1;SDS_P2;PMS_P1;PMS_P2;Temp;Humidity;BMP_temperature;BMP_pressure;BME280_temperature;BME280_humidity;BME280_pressure;Samples;Min_cycle;Max_cycle;Signal;HPM_P1;HPM_P2
2023/07/06 00:01:42;;;;;;;10.02;4.60;;;11.50;99.90;;;;;;4975876;28;20034;-72
2023/07/06 00:04:09;;;;;;;12.10;4.65;;;11.50;99.90;;;;;;4991131;28;20053;-75
2023/07/06 00:06:36;;;;;;;10.13;4.78;;;11.40;99.90;;;;;;4974818;28;20684;-73
2023/07/06 00:09:05;;;;;;;11.00;4.90;;;11.50;99.90;;;;;;4976075;28;20749;-74
2023/07/06 00:11:41;;;;;;;9.52;4.47;;;11.50;99.90;;;;;;4975579;28;20042;-73
2023/07/06 00:14:09;;;;;;;10.52;4.70;;;11.60;99.90;;;;;;4990919;28;20050;-73
2023/07/06 00:16:35;;;;;;;7.90;4.68;;;11.60;99.90;;;;;;4975556;28;20054;-73
2023/07/06 00:19:01;;;;;;;11.95;4.88;;;11.70;99.90;;;;;;4974271;28;20587;-75
2023/07/06 00:21:31;;;;;;;12.57;4.75;;;11.70;99.90;;;;;;4991581;28;20046;-74
2023/07/06 00:23:57;;;;;;;8.90;4.97;;;11.80;99.90;;;;;;4975799;28;20652;-74
2023/07/06 00:26:23;;;;;;;11.05;5.07;;;12.00;99.90;;;;;;4974589;28;20089;-75
2023/07/06 00:28:49;;;;;;;14.45;5.28;;;12.00;99.90;;;;;;4989572;28;20046;-71
2023/07/06 00:31:32;;;;;;;8.90;5.05;;;12.00;99.90;;;;;;4989055;28;20053;-73
2023/07/06 00:34:03;;;;;;;9.57;5.22;;;12.20;99.90;;;;;;4989676;28;20053;-74
2023/07/06 00:36:30;;;;;;;10.88;4.90;;;12.20;99.90;;;;;;4974154;28;20054;-75
2023/07/06 00:38:56;;;;;;;8.43;5.25;;;12.20;99.90;;;;;;4974841;28;20047;-75
2023/07/06 00:41:21;;;;;;;8.40;4.82;;;12.20;99.90;;;;;;4974553;28;20506;-73
2023/07/06 00:43:54;;;;;;;12.15;5.78;;;12.20;99.90;;;;;;4991214;28;20084;-73
2023/07/06 00:46:23;;;;;;;11.00;5.32;;;12.20;99.90;;;;;;4975367;28;20042;-72
2023/07/06 00:48:52;;;;;;;14.02;5.15;;;12.20;99.90;;;;;;4973937;28;20242;-72
2023/07/06 00:51:25;;;;;;;14.48;6.10;;;12.10;99.90;;;;;;4974285;28;20129;-74
2023/07/06 00:53:57;;;;;;;9.73;5.40;;;12.10;99.90;;;;;;4957261;28;20108;-75
2023/07/06 00:56:27;;;;;;;11.43;5.28;;;12.00;99.90;;;;;;4973827;28;20046;-73
2023/07/06 00:59:02;;;;;;;7.50;5.53;;;12.00;99.90;;;;;;4972703;28;20053;-73
2023/07/06 01:01:30;;;;;;;11.32;5.68;;;11.80;99.90;;;;;;4974536;28;20038;-71
2023/07/06 01:03:57;;;;;;;8.50;5.07;;;11.80;99.90;;;;;;4975439;28;20503;-74
2023/07/06 01:06:47;;;;;;;11.65;5.78;;;11.70;99.90;;;;;;4978798;28;20050;-73
2023/07/06 01:09:14;;;;;;;9.48;6.00;;;11.60;99.90;;;;;;4977721;28;20045;-75
2023/07/06 01:11:41;;;;;;;13.93;6.18;;;11.60;99.90;;;;;;4978764;28;20050;-75
2023/07/06 01:14:13;;;;;;;12.13;5.70;;;11.50;99.90;;;;;;4993501;28;20720;-74
2023/07/06 01:17:05;;;;;;;11.23;6.30;;;11.50;99.90;;;;;;4978244;28;20467;-74
2023/07/06 01:19:40;;;;;;;12.50;6.78;;;11.40;99.90;;;;;;4976181;28;20073;-74
2023/07/06 01:22:25;;;;;;;14.35;6.38;;;11.30;99.90;;;;;;4978553;28;20082;-74
2023/07/06 01:25:04;;;;;;;11.18;7.25;;;11.30;99.90;;;;;;4977530;28;20050;-73
2023/07/06 01:27:36;;;;;;;11.73;7.10;;;11.30;99.90;;;;;;4976357;28;20554;-72
2023/07/06 01:30:21;;;;;;;10.88;7.50;;;11.20;99.90;;;;;;4976778;28;20051;-72
2023/07/06 01:32:57;;;;;;;15.45;7.65;;;11.10;99.90;;;;;;4977812;28;20797;-73
2023/07/06 01:35:47;;;;;;;11.98;8.23;;;11.10;99.90;;;;;;4977098;28;20538;-75
2023/07/06 01:38:13;;;;;;;12.20;8.75;;;11.10;99.90;;;;;;4977300;28;20115;-74
2023/07/06 01:40:40;;;;;;;13.98;8.85;;;11.10;99.90;;;;;;4977787;28;20586;-72
2023/07/06 01:43:06;;;;;;;13.25;10.07;;;11.10;99.90;;;;;;4979162;28;20048;-75
2023/07/06 01:45:33;;;;;;;12.30;8.70;;;11.00;99.90;;;;;;4979679;28;20124;-74
2023/07/06 01:48:03;;;;;;;14.45;9.65;;;11.00;99.90;;;;;;4980017;28;20050;-74
2023/07/06 01:50:44;;;;;;;19.23;9.95;;;11.00;99.90;;;;;;4995856;28;20422;-74
2023/07/06 01:53:31;;;;;;;16.23;10.80;;;11.10;99.90;;;;;;4981851;28;20042;-73
2023/07/06 01:56:07;;;;;;;15.27;10.15;;;11.00;99.90;;;;;;4984241;28;20046;-73
2023/07/06 01:58:45;;;;;;;17.88;10.65;;;11.10;99.90;;;;;;4986844;28;20053;-75
2023/07/06 02:01:18;;;;;;;17.80;11.10;;;10.90;99.90;;;;;;4984711;28;20042;-74
2023/07/06 02:03:44;;;;;;;19.38;12.70;;;11.00;99.90;;;;;;4969324;28;20046;-73
2023/07/06 02:06:11;;;;;;;20.10;12.35;;;11.00;99.90;;;;;;4952889;28;20034;-73
2023/07/06 02:08:41;;;;;;;18.92;12.82;;;10.90;99.90;;;;;;4983514;28;20046;-74
2023/07/06 02:11:19;;;;;;;20.83;13.32;;;11.00;99.90;;;;;;4985063;28;20049;-75
2023/07/06 02:13:45;;;;;;;20.75;13.45;;;11.00;99.90;;;;;;4982278;28;20046;-73
2023/07/06 02:16:10;;;;;;;19.50;12.40;;;10.90;99.90;;;;;;4984689;28;20045;-74
2023/07/06 02:18:36;;;;;;;22.33;13.52;;;11.10;99.90;;;;;;4986568;28;20042;-74
2023/07/06 02:21:03;;;;;;;26.38;15.18;;;10.90;99.90;;;;;;4988700;28;20045;-74
2023/07/06 02:23:29;;;;;;;22.88;14.68;;;11.20;99.90;;;;;;4986768;28;20038;-74
2023/07/06 02:25:55;;;;;;;22.05;13.93;;;11.20;99.90;;;;;;4987432;28;20065;-71
2023/07/06 02:28:22;;;;;;;20.88;14.23;;;11.20;99.90;;;;;;4980610;28;20042;-74
2023/07/06 02:30:54;;;;;;;21.52;14.45;;;11.20;99.90;;;;;;4981194;28;20309;-73
2023/07/06 02:33:21;;;;;;;20.27;15.32;;;11.20;99.90;;;;;;4980703;28;20065;-73
2023/07/06 02:35:47;;;;;;;23.55;14.50;;;11.30;99.90;;;;;;4979307;28;20058;-75
2023/07/06 02:38:17;;;;;;;25.08;14.80;;;11.40;99.90;;;;;;4982741;28;20050;-74
2023/07/06 02:40:43;;;;;;;24.58;15.10;;;11.30;99.90;;;;;;4983545;28;20057;-73
2023/07/06 02:43:09;;;;;;;20.27;15.02;;;11.40;99.90;;;;;;4984343;28;20042;-75
2023/07/06 02:45:35;;;;;;;21.88;15.77;;;11.50;99.90;;;;;;4984993;28;20050;-74
2023/07/06 02:48:03;;;;;;;20.85;14.63;;;11.50;99.90;;;;;;4979109;28;20038;-73
2023/07/06 02:50:30;;;;;;;22.48;15.68;;;11.40;99.90;;;;;;4977129;28;20121;-74
2023/07/06 02:52:56;;;;;;;22.67;15.70;;;11.50;99.90;;;;;;4978186;28;20182;-74
2023/07/06 02:55:23;;;;;;;25.02;14.73;;;11.50;99.90;;;;;;4977969;28;20041;-75
2023/07/06 02:57:49;;;;;;;22.10;15.35;;;11.70;99.90;;;;;;4977773;28;20042;-74
2023/07/06 03:00:17;;;;;;;23.42;15.90;;;11.70;99.90;;;;;;4977155;28;20042;-73
2023/07/06 03:02:49;;;;;;;20.05;14.75;;;11.80;99.90;;;;;;4977711;28;20046;-73
2023/07/06 03:05:21;;;;;;;19.92;14.43;;;11.70;99.90;;;;;;4976932;28;20057;-73
2023/07/06 03:07:49;;;;;;;22.38;15.00;;;11.90;99.90;;;;;;4977339;28;20038;-74
2023/07/06 03:10:17;;;;;;;20.95;15.02;;;11.80;99.90;;;;;;4975811;28;20050;-74
2023/07/06 03:12:43;;;;;;;19.98;14.60;;;11.80;99.90;;;;;;4977363;28;20050;-75
2023/07/06 03:15:10;;;;;;;23.15;14.73;;;11.90;99.90;;;;;;4975479;28;20487;-74
2023/07/06 03:17:37;;;;;;;20.95;14.43;;;12.00;99.90;;;;;;4976952;28;20394;-74
2023/07/06 03:20:15;;;;;;;20.77;14.38;;;12.00;99.90;;;;;;4976986;28;20445;-74
2023/07/06 03:22:45;;;;;;;24.25;15.32;;;12.00;99.90;;;;;;4975275;28;20046;-72
2023/07/06 03:25:13;;;;;;;19.10;13.80;;;12.10;99.90;;;;;;4975575;28;20038;-74
2023/07/06 03:27:40;;;;;;;23.23;13.75;;;12.00;99.90;;;;;;4977846;28;20125;-75
2023/07/06 03:30:09;;;;;;;20.65;14.02;;;12.20;99.90;;;;;;4959075;28;20050;-75
2023/07/06 03:32:37;;;;;;;24.20;14.18;;;12.00;99.90;;;;;;4976557;28;20536;-74
2023/07/06 03:35:09;;;;;;;22.13;13.93;;;12.30;99.90;;;;;;4976354;28;20054;-72
2023/07/06 03:37:37;;;;;;;21.88;13.75;;;12.30;99.90;;;;;;4976979;28;20517;-73
2023/07/06 03:40:05;;;;;;;19.95;13.90;;;12.30;99.90;;;;;;4975646;28;20050;-74
2023/07/06 03:42:32;;;;;;;22.30;14.07;;;12.20;99.90;;;;;;4975035;28;20042;-73
2023/07/06 03:44:57;;;;;;;24.27;14.77;;;12.20;99.90;;;;;;4975491;28;20698;-74
2023/07/06 03:47:26;;;;;;;21.13;12.98;;;12.30;99.90;;;;;;4959797;28;20046;-74
2023/07/06 03:49:53;;;;;;;21.13;15.65;;;12.20;99.90;;;;;;4977070;28;20085;-73
2023/07/06 03:52:18;;;;;;;17.00;13.43;;;12.10;99.90;;;;;;4976025;28;20054;-74
2023/07/06 03:54:47;;;;;;;20.10;12.95;;;12.10;99.90;;;;;;4975178;28;20566;-73
2023/07/06 03:57:16;;;;;;;24.58;13.40;;;12.00;99.90;;;;;;4975883;28;20702;-73
2023/07/06 03:59:42;;;;;;;18.10;14.15;;;12.10;99.90;;;;;;4977278;28;20081;-72
2023/07/06 04:02:09;;;;;;;17.60;12.48;;;11.90;99.90;;;;;;4976220;28;20043;-73
2023/07/06 04:04:35;;;;;;;20.65;14.02;;;11.90;99.90;;;;;;4976253;28;20504;-75
2023/07/06 04:07:02;;;;;;;24.10;13.27;;;12.00;99.90;;;;;;4974301;28;20050;-74
2023/07/06 04:09:28;;;;;;;20.90;13.70;;;11.90;99.90;;;;;;4976304;28;20050;-75
2023/07/06 04:11:55;;;;;;;17.15;13.63;;;12.00;99.90;;;;;;4976447;28;20046;-74
2023/07/06 04:14:24;;;;;;;17.42;13.13;;;11.90;99.90;;;;;;4975488;28;20414;-73
2023/07/06 04:16:56;;;;;;;19.33;13.38;;;12.00;99.90;;;;;;4974298;28;20141;-75
2023/07/06 04:19:23;;;;;;;18.50;12.10;;;11.90;99.90;;;;;;4976032;28;20100;-72
2023/07/06 04:21:49;;;;;;;21.70;11.77;;;12.10;99.90;;;;;;4976452;28;20517;-75
2023/07/06 04:24:16;;;;;;;20.15;12.27;;;12.10;99.90;;;;;;4976266;28;20490;-72
2023/07/06 04:26:45;;;;;;;21.10;12.35;;;12.10;99.90;;;;;;4975945;28;20046;-73
2023/07/06 04:29:11;;;;;;;14.60;11.65;;;12.10;99.90;;;;;;4975898;28;20053;-75
2023/07/06 04:31:37;;;;;;;19.55;11.50;;;12.10;99.90;;;;;;4975056;28;20836;-73
2023/07/06 04:34:03;;;;;;;12.95;11.20;;;12.20;99.90;;;;;;4976779;28;20615;-76
2023/07/06 04:36:31;;;;;;;15.52;11.23;;;12.40;99.90;;;;;;4976372;28;20050;-72
2023/07/06 04:39:02;;;;;;;13.35;10.70;;;12.50;99.90;;;;;;4976533;28;20056;-75
2023/07/06 04:41:28;;;;;;;15.15;10.40;;;12.60;99.90;;;;;;4975804;28;20046;-74
2023/07/06 04:43:54;;;;;;;14.73;8.70;;;12.80;99.90;;;;;;4974622;28;20482;-75
2023/07/06 04:46:21;;;;;;;12.55;8.38;;;12.90;99.90;;;;;;4975986;28;20734;-73
2023/07/06 04:48:47;;;;;;;11.98;8.68;;;13.10;99.90;;;;;;4991059;28;20065;-75
2023/07/06 04:51:13;;;;;;;14.13;8.15;;;13.20;99.90;;;;;;4974465;28;20046;-74
2023/07/06 04:53:40;;;;;;;12.27;8.15;;;13.20;99.90;;;;;;4974245;28;20390;-73
2023/07/06 04:56:07;;;;;;;13.02;8.50;;;13.20;99.90;;;;;;4974607;28;20570;-75
2023/07/06 04:58:32;;;;;;;11.38;8.27;;;13.30;99.90;;;;;;4975598;28;20242;-74
2023/07/06 05:01:04;;;;;;;10.25;7.43;;;13.60;99.90;;;;;;4990664;28;20152;-74
2023/07/06 05:03:31;;;;;;;14.90;7.70;;;13.50;99.90;;;;;;4974967;28;20083;-73
2023/07/06 05:06:01;;;;;;;10.85;7.70;;;13.70;99.90;;;;;;4975406;28;20644;-74
2023/07/06 05:08:27;;;;;;;13.48;8.18;;;13.90;99.90;;;;;;4974154;28;20074;-73
2023/07/06 05:10:53;;;;;;;12.38;7.15;;;13.90;99.90;;;;;;4975016;28;20490;-75
2023/07/06 05:13:20;;;;;;;14.73;7.35;;;14.10;99.90;;;;;;4975235;28;20497;-74
2023/07/06 05:15:48;;;;;;;10.63;7.55;;;14.00;99.90;;;;;;4974178;28;20889;-74
2023/07/06 05:18:14;;;;;;;10.35;7.43;;;14.00;99.90;;;;;;4975519;28;20559;-74
2023/07/06 05:20:40;;;;;;;10.27;6.78;;;14.00;99.90;;;;;;4976239;28;20050;-74
2023/07/06 05:23:08;;;;;;;13.70;7.85;;;14.00;99.90;;;;;;4959098;28;20557;-73
2023/07/06 05:25:36;;;;;;;10.52;7.05;;;14.10;99.90;;;;;;4992453;28;20050;-74
2023/07/06 05:28:02;;;;;;;9.23;6.55;;;14.10;99.90;;;;;;4975798;28;20150;-75
2023/07/06 05:30:28;;;;;;;9.25;6.82;;;14.20;99.90;;;;;;4975997;28;20469;-74
2023/07/06 05:32:54;;;;;;;10.35;6.30;;;14.50;99.90;;;;;;4959004;28;20051;-76
2023/07/06 05:35:22;;;;;;;13.38;6.80;;;14.80;99.90;;;;;;4975861;28;20132;-74
2023/07/06 05:37:48;;;;;;;13.02;6.32;;;14.90;99.90;;;;;;4990450;28;20410;-73
2023/07/06 05:40:14;;;;;;;9.20;5.28;;;15.40;99.90;;;;;;4975633;28;20046;-75
2023/07/06 05:42:40;;;;;;;11.55;5.88;;;15.40;99.90;;;;;;4976080;28;20068;-73
2023/07/06 05:45:08;;;;;;;9.95;5.72;;;15.50;99.90;;;;;;4980971;28;20038;-74
2023/07/06 05:47:34;;;;;;;11.77;5.10;;;15.90;99.90;;;;;;4982663;28;20490;-74
2023/07/06 05:50:00;;;;;;;8.73;5.20;;;15.90;99.90;;;;;;4980067;28;20101;-73
2023/07/06 05:52:27;;;;;;;9.50;5.47;;;16.10;99.90;;;;;;4976328;28;20288;-73
2023/07/06 05:54:53;;;;;;;9.85;5.20;;;16.10;99.90;;;;;;4978905;28;20557;-75
2023/07/06 05:57:19;;;;;;;11.77;4.88;;;16.10;99.90;;;;;;4979026;28;20039;-75
2023/07/06 05:59:46;;;;;;;11.35;5.60;;;16.20;99.90;;;;;;4979085;28;20046;-73
2023/07/06 06:02:16;;;;;;;15.80;6.25;;;16.20;99.90;;;;;;4993903;28;20035;-74
2023/07/06 06:04:42;;;;;;;12.00;5.80;;;16.30;99.90;;;;;;4978990;28;20042;-73
2023/07/06 06:07:09;;;;;;;11.75;4.97;;;16.40;99.90;;;;;;4979118;28;20042;-75
2023/07/06 06:09:35;;;;;;;10.07;5.15;;;16.40;55.80;;;;;;4978013;28;20440;-74
2023/07/06 06:12:04;;;;;;;13.35;5.28;;;16.60;99.90;;;;;;4978522;28;20416;-74
2023/07/06 06:14:30;;;;;;;10.77;4.68;;;16.60;1.00;;;;;;4992852;28;20061;-76
2023/07/06 06:16:56;;;;;;;11.38;5.25;;;16.50;1.00;;;;;;4978887;28;20137;-75
2023/07/06 06:19:22;;;;;;;16.52;6.20;;;16.80;1.00;;;;;;4978914;28;20101;-75
2023/07/06 06:21:49;;;;;;;10.90;5.07;;;16.90;99.90;;;;;;4979720;28;20049;-73
2023/07/06 06:24:15;;;;;;;9.73;5.43;;;17.00;99.90;;;;;;4979096;28;20153;-75
2023/07/06 06:26:42;;;;;;;16.10;5.65;;;17.10;99.90;;;;;;4979609;28;20541;-74
2023/07/06 06:29:09;;;;;;;9.68;5.60;;;17.10;99.90;;;;;;4979575;28;20048;-74
2023/07/06 06:31:42;;;;;;;14.95;5.53;;;17.20;99.90;;;;;;4982187;28;20723;-75
2023/07/06 06:34:08;;;;;;;;;;;17.30;99.90;;;;;;4984008;28;20581;-75
2023/07/06 06:36:34;;;;;;;10.40;5.85;;;17.40;99.90;;;;;;4980435;28;19948;-74
2023/07/06 06:39:00;;;;;;;12.23;5.65;;;17.50;99.90;;;;;;4981498;28;20849;-77
2023/07/06 06:41:25;;;;;;;11.70;5.07;;;17.40;99.90;;;;;;4980332;28;20038;-74
2023/07/06 06:43:51;;;;;;;14.48;6.28;;;17.50;99.90;;;;;;4979567;28;20046;-75
2023/07/06 06:46:17;;;;;;;13.80;5.90;;;17.40;99.90;;;;;;4979445;28;20086;-74
2023/07/06 06:48:43;;;;;;;13.23;5.90;;;17.30;99.90;;;;;;4979754;28;20050;-76
2023/07/06 06:51:10;;;;;;;11.85;5.55;;;17.40;99.90;;;;;;4978700;28;20089;-74
2023/07/06 06:53:39;;;;;;;13.95;5.32;;;17.60;99.90;;;;;;4978105;28;20446;-73
2023/07/06 06:56:09;;;;;;;14.27;5.90;;;17.70;99.90;;;;;;4979572;28;20062;-74
2023/07/06 06:58:35;;;;;;;16.33;5.68;;;17.90;99.90;;;;;;4979754;28;20068;-75
2023/07/06 07:01:05;;;;;;;13.48;5.57;;;18.00;99.90;;;;;;4994386;28;20437;-75
2023/07/06 07:03:31;;;;;;;12.50;6.10;;;18.10;99.90;;;;;;4994031;28;20126;-76
2023/07/06 07:06:11;;;;;;;11.55;5.47;;;18.20;99.90;;;;;;4977923;28;20043;-76
2023/07/06 07:08:44;;;;;;;12.30;5.57;;;18.30;99.90;;;;;;4980124;28;20050;-76
2023/07/06 07:11:12;;;;;;;12.73;5.40;;;18.30;99.90;;;;;;4978357;28;20046;-74
2023/07/06 07:13:40;;;;;;;10.15;4.97;;;18.50;99.90;;;;;;4979164;28;20054;-76
2023/07/06 07:16:07;;;;;;;8.57;4.65;;;18.50;75.20;;;;;;4993337;28;20042;-76
2023/07/06 07:18:34;;;;;;;15.73;5.55;;;18.70;48.70;;;;;;4979052;28;20623;-74
2023/07/06 07:21:01;;;;;;;8.68;4.60;;;18.80;99.90;;;;;;4977909;28;20108;-74
2023/07/06 07:23:40;;;;;;;11.40;4.60;;;18.80;91.60;;;;;;4979464;28;20497;-75
2023/07/06 07:26:07;;;;;;;11.85;4.85;;;18.90;1.00;;;;;;4978871;28;20164;-75
2023/07/06 07:28:33;;;;;;;13.45;4.50;;;19.10;83.50;;;;;;4977989;28;20430;-73
2023/07/06 07:31:00;;;;;;;12.07;4.88;;;19.40;99.90;;;;;;4977526;28;20091;-74
2023/07/06 07:33:29;;;;;;;11.10;4.78;;;19.30;1.00;;;;;;4979475;28;20054;-74
2023/07/06 07:35:58;;;;;;;9.80;4.05;;;19.00;99.90;;;;;;4961552;28;20467;-76
2023/07/06 07:38:24;;;;;;;10.80;4.60;;;19.20;99.90;;;;;;4961010;28;20053;-76
2023/07/06 07:40:56;;;;;;;10.02;4.30;;;19.30;99.90;;;;;;4979245;28;20522;-76
2023/07/06 07:43:25;;;;;;;10.20;3.73;;;19.40;1.00;;;;;;4977881;28;20050;-72
2023/07/06 07:45:54;;;;;;;11.00;3.38;;;19.50;99.90;;;;;;4978813;28;20129;-76
2023/07/06 07:48:23;;;;;;;7.30;3.15;;;19.60;99.90;;;;;;4979117;28;20075;-74
2023/07/06 07:50:50;;;;;;;9.00;2.88;;;19.60;99.90;;;;;;4978940;28;20050;-74
2023/07/06 07:53:17;;;;;;;11.60;2.67;;;19.60;99.90;;;;;;4979468;28;20035;-74
2023/07/06 07:55:44;;;;;;;11.95;3.30;;;19.90;99.90;;;;;;4983961;28;20057;-73
2023/07/06 07:58:10;;;;;;;5.55;2.30;;;20.20;99.90;;;;;;4984322;28;20061;-76
2023/07/06 08:00:36;;;;;;;5.35;2.00;;;20.30;99.90;;;;;;4980714;28;20534;-75
2023/07/06 08:03:06;;;;;;;7.45;2.10;;;20.70;99.90;;;;;;4962782;28;20050;-73
2023/07/06 08:05:32;;;;;;;7.75;2.13;;;20.60;99.90;;;;;;4979151;28;20236;-73
2023/07/06 08:07:58;;;;;;;5.78;1.70;;;20.40;99.90;;;;;;4978699;28;20046;-73
2023/07/06 08:10:24;;;;;;;7.60;1.83;;;20.00;1.00;;;;;;4980025;28;20045;-74
2023/07/06 08:12:49;;;;;;;6.97;1.35;;;19.80;1.00;;;;;;4982561;28;20053;-75
2023/07/06 08:15:15;;;;;;;7.30;1.45;;;19.80;39.20;;;;;;4983739;28;20046;-76
2023/07/06 08:17:42;;;;;;;7.65;1.30;;;20.30;93.40;;;;;;4980536;28;20108;-75
2023/07/06 08:20:11;;;;;;;5.43;1.10;;;20.70;1.00;;;;;;4977937;28;20062;-73
2023/07/06 08:22:37;;;;;;;4.75;1.17;;;21.00;1.00;;;;;;4992541;28;20457;-76
2023/07/06 08:25:08;;;;;;;3.92;0.70;;;21.00;99.90;;;;;;4977868;28;20042;-75
2023/07/06 08:27:35;;;;;;;6.22;0.80;;;21.00;99.90;;;;;;4992966;28;20057;-74
2023/07/06 08:30:01;;;;;;;3.80;0.60;;;21.30;99.90;;;;;;4993734;28;21015;-73
2023/07/06 08:32:27;;;;;;;4.68;0.90;;;21.40;99.90;;;;;;4992575;28;20258;-75
2023/07/06 08:34:56;;;;;;;4.60;0.75;;;21.50;99.90;;;;;;4976538;28;20101;-74
2023/07/06 08:37:22;;;;;;;3.95;0.70;;;21.50;99.90;;;;;;4976038;28;20061;-74
2023/07/06 08:39:47;;;;;;;3.40;0.80;;;21.30;99.90;;;;;;4958968;28;20050;-76
2023/07/06 08:42:18;;;;;;;4.85;0.93;;;21.00;27.60;;;;;;4976234;28;20044;-75
2023/07/06 08:44:51;;;;;;;3.10;0.60;;;20.70;79.80;;;;;;4974072;28;20133;-75
2023/07/06 08:47:18;;;;;;;3.35;0.70;;;21.00;99.90;;;;;;4990068;28;20078;-75
2023/07/06 08:49:44;;;;;;;2.92;0.57;;;21.10;99.90;;;;;;4974527;28;20042;-75
2023/07/06 08:52:14;;;;;;;3.17;0.60;;;20.80;99.90;;;;;;4976181;28;20424;-74
2023/07/06 08:54:42;;;;;;;1.85;0.73;;;20.60;79.10;;;;;;4976528;28;20046;-73
2023/07/06 08:57:15;;;;;;;5.10;0.93;;;20.40;99.90;;;;;;4976982;28;20361;-74
2023/07/06 08:59:48;;;;;;;5.00;0.93;;;20.30;99.90;;;;;;4981657;28;20038;-75
2023/07/06 09:02:20;;;;;;;4.07;0.60;;;20.60;92.90;;;;;;4978438;28;20129;-72
2023/07/06 09:04:48;;;;;;;6.15;0.73;;;21.00;99.90;;;;;;4981490;28;20213;-74
2023/07/06 09:07:21;;;;;;;4.47;0.85;;;20.90;1.00;;;;;;4980362;28;20073;-75
2023/07/06 09:09:48;;;;;;;2.72;0.50;;;20.70;1.00;;;;;;4978721;28;20174;-75
2023/07/06 09:12:31;;;;;;;1.52;0.45;;;20.40;1.00;;;;;;4960134;28;20046;-73
2023/07/06 09:14:59;;;;;;;3.10;0.40;;;20.10;1.00;;;;;;4993460;28;20352;-73
2023/07/06 09:17:26;;;;;;;5.10;0.88;;;20.10;71.50;;;;;;4977748;28;20053;-74
2023/07/06 09:19:53;;;;;;;3.13;0.63;;;20.20;99.90;;;;;;4977407;28;20114;-75
2023/07/06 09:22:22;;;;;;;6.43;0.65;;;20.20;99.90;;;;;;4976853;28;20721;-75
2023/07/06 09:24:49;;;;;;;3.15;0.50;;;20.40;98.30;;;;;;4978904;28;20089;-74
2023/07/06 09:27:28;;;;;;;2.60;0.40;;;20.50;3.70;;;;;;4995661;28;20561;-73
2023/07/06 09:30:06;;;;;;;4.28;0.57;;;20.50;25.30;;;;;;4981919;28;20046;-76
2023/07/06 09:32:33;;;;;;;4.47;0.63;;;20.50;7.80;;;;;;4981655;28;20052;-73
2023/07/06 09:35:21;;;;;;;2.97;0.60;;;20.50;50.50;;;;;;4980418;28;20142;-74
2023/07/06 09:37:49;;;;;;;3.60;0.47;;;20.40;9.90;;;;;;4981493;28;20054;-74
2023/07/06 09:40:15;;;;;;;4.60;0.50;;;20.30;1.00;;;;;;4982063;28;20046;-75
2023/07/06 09:42:44;;;;;;;2.10;0.40;;;19.90;5.40;;;;;;4982489;28;20038;-74
2023/07/06 09:45:24;;;;;;;1.65;0.50;;;19.60;53.40;;;;;;4981363;28;20193;-76
2023/07/06 09:47:57;;;;;;;3.22;0.47;;;19.40;71.10;;;;;;4979662;28;20581;-75
2023/07/06 09:50:35;;;;;;;3.55;0.50;;;19.30;99.90;;;;;;4982320;28;20105;-76
2023/07/06 09:53:05;;;;;;;3.42;0.50;;;19.30;99.90;;;;;;4982436;28;20062;-75
2023/07/06 09:55:31;;;;;;;5.47;0.50;;;19.30;99.90;;;;;;4980906;28;20576;-72
2023/07/06 09:58:01;;;;;;;3.35;0.88;;;19.40;99.90;;;;;;4981307;28;20057;-75
2023/07/06 10:00:43;;;;;;;4.15;0.60;;;19.50;99.90;;;;;;4982243;28;20775;-72
2023/07/06 10:03:31;;;;;;;2.53;0.40;;;19.90;99.90;;;;;;4982222;28;20203;-75
2023/07/06 10:06:07;;;;;;;2.03;0.50;;;20.30;99.90;;;;;;4981207;28;20921;-73
2023/07/06 10:08:50;;;;;;;3.67;0.70;;;20.60;1.00;;;;;;4996964;28;20625;-75
2023/07/06 10:11:22;;;;;;;;;;;20.50;1.00;;;;;;4982037;28;20794;-74
2023/07/06 10:14:01;;;;;;;3.63;0.50;;;20.30;1.00;;;;;;4980441;28;19921;-76
2023/07/06 10:16:42;;;;;;;3.00;0.40;;;20.50;1.00;;;;;;4982861;28;20046;-75
2023/07/06 10:19:31;;;;;;;1.95;0.50;;;20.80;1.00;;;;;;4997314;28;20052;-74
2023/07/06 10:22:21;;;;;;;3.72;0.65;;;21.30;1.00;;;;;;4982535;28;20573;-75
2023/07/06 10:24:55;;;;;;;3.00;0.90;;;21.70;1.00;;;;;;4981873;28;20050;-75
2023/07/06 10:27:31;;;;;;;5.00;0.60;;;22.00;99.90;;;;;;4980130;28;20085;-76
2023/07/06 10:30:03;;;;;;;2.50;0.50;;;22.60;99.90;;;;;;4986072;28;20069;-76
2023/07/06 10:32:37;;;;;;;2.43;0.40;;;22.90;99.90;;;;;;4990222;28;20042;-73
2023/07/06 10:35:26;;;;;;;2.03;0.35;;;23.20;99.90;;;;;;4990159;28;20285;-74
2023/07/06 10:37:52;;;;;;;2.47;0.60;;;23.50;99.90;;;;;;4987218;28;20584;-76
2023/07/06 10:40:22;;;;;;;3.05;0.40;;;23.00;99.90;;;;;;4986962;28;20165;-74
2023/07/06 10:43:01;;;;;;;2.60;0.40;;;22.50;99.90;;;;;;4981249;28;20125;-76
2023/07/06 10:45:33;;;;;;;3.50;0.50;;;22.00;99.90;;;;;;4994392;28;20342;-74
2023/07/06 10:48:24;;;;;;;6.65;0.40;;;21.40;99.90;;;;;;4980589;28;20310;-73
2023/07/06 10:51:08;;;;;;;3.72;0.47;;;21.00;99.90;;;;;;4980797;28;20038;-76
2023/07/06 10:53:48;;;;;;;4.05;0.55;;;20.80;99.90;;;;;;4962799;28;20056;-75
2023/07/06 10:56:19;;;;;;;3.50;0.60;;;20.70;1.00;;;;;;4978884;28;20051;-75
2023/07/06 10:58:57;;;;;;;4.72;0.73;;;20.70;1.00;;;;;;5004107;28;20042;-74
2023/07/06 11:01:43;;;;;;;4.03;0.50;;;21.00;1.00;;;;;;5009002;28;20047;-73
2023/07/06 11:04:41;;;;;;;2.47;0.50;;;21.30;1.00;;;;;;4992241;28;20050;-74
2023/07/06 11:07:31;;;;;;;3.08;0.50;;;22.00;99.90;;;;;;4991184;28;20042;-75
2023/07/06 11:10:12;;;;;;;2.13;0.50;;;22.60;99.90;;;;;;4973701;28;20054;-74
2023/07/06 11:13:01;;;;;;;2.42;0.50;;;22.60;99.90;;;;;;4977118;28;20490;-76
2023/07/06 11:15:41;;;;;;;2.60;0.50;;;22.60;99.90;;;;;;4977201;28;20105;-75
2023/07/06 11:18:22;;;;;;;1.75;0.40;;;22.10;99.90;;;;;;4992024;28;20493;-76
2023/07/06 11:21:08;;;;;;;2.70;0.40;;;22.10;99.90;;;;;;4977880;28;20140;-75
2023/07/06 11:23:57;;;;;;;4.60;0.50;;;22.20;99.90;;;;;;4976675;28;20145;-76
2023/07/06 11:26:31;;;;;;;3.15;0.50;;;22.80;99.90;;;;;;4978320;28;20084;-75
2023/07/06 11:28:57;;;;;;;3.08;0.50;;;23.20;99.90;;;;;;4977371;28;20096;-76
2023/07/06 11:31:34;;;;;;;2.65;0.40;;;23.20;99.90;;;;;;4977493;28;20035;-74
2023/07/06 11:34:18;;;;;;;3.45;0.60;;;23.00;99.90;;;;;;4978556;28;20049;-75
2023/07/06 11:37:24;;;;;;;3.35;0.40;;;22.80;99.90;;;;;;4977758;28;20058;-75
2023/07/06 11:40:19;;;;;;;3.25;0.40;;;22.60;99.90;;;;;;4968938;28;20461;-74
2023/07/06 11:43:19;;;;;;;3.63;0.30;;;22.70;99.90;;;;;;4979301;28;20061;-75
2023/07/06 11:45:58;;;;;;;1.73;0.40;;;22.80;99.90;;;;;;4980480;28;20042;-76
2023/07/06 11:48:35;;;;;;;8.88;0.90;;;23.50;99.90;;;;;;4978216;28;20046;-75
2023/07/06 11:51:03;;;;;;;1.45;0.30;;;23.80;99.90;;;;;;4984576;28;20050;-74
2023/07/06 11:53:42;;;;;;;1.77;0.45;;;23.70;99.90;;;;;;4977710;28;20085;-77
2023/07/06 11:56:32;;;;;;;2.03;0.30;;;23.40;99.90;;;;;;4976718;28;20454;-73
2023/07/06 11:59:03;;;;;;;2.33;0.45;;;22.80;99.90;;;;;;4993929;28;20054;-74
2023/07/06 12:01:42;;;;;;;2.83;0.50;;;22.30;99.90;;;;;;4979357;28;20046;-75
2023/07/06 12:04:20;;;;;;;4.53;0.35;;;22.10;99.90;;;;;;4979625;28;20154;-74
2023/07/06 12:06:48;;;;;;;1.63;0.30;;;21.90;99.90;;;;;;4978467;28;20108;-74
2023/07/06 12:09:23;;;;;;;1.65;0.30;;;21.60;99.90;;;;;;4978900;28;20470;-75
2023/07/06 12:12:07;;;;;;;2.38;0.43;;;21.60;99.90;;;;;;4977316;28;20129;-74
2023/07/06 12:14:34;;;;;;;1.38;0.30;;;21.50;99.90;;;;;;4977710;28;20081;-75
2023/07/06 12:17:01;;;;;;;3.03;0.40;;;21.40;99.90;;;;;;4978624;28;20049;-75
2023/07/06 12:19:30;;;;;;;1.92;0.30;;;21.50;99.90;;;;;;4976485;28;20034;-76
2023/07/06 12:21:57;;;;;;;2.97;0.60;;;21.50;99.90;;;;;;4977431;28;20042;-75
2023/07/06 12:24:26;;;;;;;3.08;0.40;;;21.90;99.90;;;;;;4977886;28;20053;-75
2023/07/06 12:27:01;;;;;;;2.03;0.30;;;22.20;99.90;;;;;;4977556;28;20640;-74
2023/07/06 12:29:31;;;;;;;3.05;0.40;;;22.30;99.90;;;;;;4978428;28;20038;-77
2023/07/06 12:32:22;;;;;;;1.95;0.50;;;22.80;99.90;;;;;;4992697;28;20502;-75
2023/07/06 12:34:51;;;;;;;1.52;0.40;;;23.50;99.90;;;;;;4979195;28;20065;-75
2023/07/06 12:37:20;;;;;;;1.35;0.40;;;23.90;99.90;;;;;;4981704;28;20089;-73
2023/07/06 12:39:48;;;;;;;3.15;0.60;;;24.30;99.90;;;;;;4978424;28;20137;-73
2023/07/06 12:42:17;;;;;;;1.42;0.30;;;24.10;99.90;;;;;;4976376;28;20073;-74
2023/07/06 12:44:45;;;;;;;1.60;0.40;;;23.60;99.90;;;;;;4975960;28;20038;-74
2023/07/06 12:47:24;;;;;;;1.42;0.40;;;23.70;99.90;;;;;;4992862;28;20061;-74
2023/07/06 12:49:52;;;;;;;3.20;0.45;;;23.90;99.90;;;;;;4977473;28;20602;-76
2023/07/06 12:52:21;;;;;;;2.28;0.43;;;23.80;99.90;;;;;;4975513;28;20090;-74
2023/07/06 12:54:54;;;;;;;3.00;0.52;;;24.10;99.90;;;;;;4960043;28;20101;-73
2023/07/06 12:57:22;;;;;;;1.88;0.40;;;24.20;99.90;;;;;;4992387;28;20038;-74
2023/07/06 12:59:53;;;;;;;3.08;0.40;;;24.40;99.90;;;;;;4976909;28;20346;-74